sensor_id;sensor_type;location;lat;lon;timestamp;pressure;altitude;pressure_sealevel;temperature;humidity
74437;BME280;62868;52.360;30.424;2024-02-28T01:54:47;1035.2;;;2.1;64.1
74437;BME280;62868;52.360;30.424;2024-02-28T01:59:17;1035.2;;;2;64.2
74437;BME280;62868;52.360;30.424;2024-02-28T02:04:25;1035.3;;;2;64.2
74437;BME280;62868;52.360;30.424;2024-02-28T02:09:17;1035.3;;;2;64.3
74437;BME280;62868;52.360;30.424;2024-02-28T02:14:25;1035.3;;;2;64.3
74437;BME280;62868;52.360;30.424;2024-02-28T02:19:17;1035.3;;;2;64.4
74437;BME280;62868;52.360;30.424;2024-02-28T02:24:23;1035.3;;;2;64.4
74437;BME280;62868;52.360;30.424;2024-02-28T02:29:41;1035.3;;;1.9;64.5
74437;BME280;62868;52.360;30.424;2024-02-28T02:34:31;1035.3;;;1.9;64.5
74437;BME280;62868;52.360;30.424;2024-02-28T02:39:34;1035.2;;;1.9;64.5
74437;BME280;62868;52.360;30.424;2024-02-28T02:44:47;1035.1;;;1.8;64.6
74437;BME280;62868;52.360;30.424;2024-02-28T02:49:40;1035.1;;;1.8;64.6
74437;BME280;62868;52.360;30.424;2024-02-28T02:54:31;1035.1;;;1.7;64.7
74437;BME280;62868;52.360;30.424;2024-02-28T02:59:20;1035.2;;;1.7;64.8
74437;BME280;62868;52.360;30.424;2024-02-28T03:04:19;1035.2;;;1.7;64.9
74437;BME280;62868;52.360;30.424;2024-02-28T03:09:35;1035.2;;;1.6;64.9
74437;BME280;62868;52.360;30.424;2024-02-28T03:14:38;1035.1;;;1.6;64.9
74437;BME280;62868;52.360;30.424;2024-02-28T03:19:27;1035.1;;;1.5;65
74437;BME280;62868;52.360;30.424;2024-02-28T03:24:55;1035.1;;;1.5;65
74437;BME280;62868;52.360;30.424;2024-02-28T03:29:35;1035.1;;;1.4;65.1
74437;BME280;62868;52.360;30.424;2024-02-28T03:34:27;1035.1;;;1.4;65.2
74437;BME280;62868;52.360;30.424;2024-02-28T03:39:25;1035.1;;;1.4;65.2
74437;BME280;62868;52.360;30.424;2024-02-28T03:44:25;1035.1;;;1.4;65.3
74437;BME280;62868;52.360;30.424;2024-02-28T03:49:25;1035.2;;;1.4;65.3
74437;BME280;62868;52.360;30.424;2024-02-28T03:54:18;1035.1;;;1.4;65.4
74437;BME280;62868;52.360;30.424;2024-02-28T03:59:42;1035.1;;;1.4;65.4
74437;BME280;62868;52.360;30.424;2024-02-28T04:04:43;1035.1;;;1.3;65.5
74437;BME280;62868;52.360;30.424;2024-02-28T04:09:34;1035.1;;;1.4;65.5
74437;BME280;62868;52.360;30.424;2024-02-28T04:15:00;1035.1;;;1.4;65.5
74437;BME280;62868;52.360;30.424;2024-02-28T04:19:50;1035.1;;;1.4;65.6
74437;BME280;62868;52.360;30.424;2024-02-28T04:24:44;1035.1;;;1.3;65.6
74437;BME280;62868;52.360;30.424;2024-02-28T04:29:50;1035.1;;;1.3;65.7
74437;BME280;62868;52.360;30.424;2024-02-28T04:34:44;1035.2;;;1.3;65.8
74437;BME280;62868;52.360;30.424;2024-02-28T04:39:36;1035.2;;;1.3;65.8
74437;BME280;62868;52.360;30.424;2024-02-28T04:44:26;1035.2;;;1.3;65.8
74437;BME280;62868;52.360;30.424;2024-02-28T04:49:38;1035.3;;;1.3;65.8
74437;BME280;62868;52.360;30.424;2024-02-28T04:54:20;1035.3;;;1.3;65.9
74437;BME280;62868;52.360;30.424;2024-02-28T04:59:56;1035.3;;;1.3;65.9
74437;BME280;62868;52.360;30.424;2024-02-28T05:04:38;1035.3;;;1.4;65.9
74437;BME280;62868;52.360;30.424;2024-02-28T05:09:48;1035.3;;;1.4;65.9
74437;BME280;62868;52.360;30.424;2024-02-28T05:14:26;1035.3;;;1.4;65.9
74437;BME280;62868;52.360;30.424;2024-02-28T05:19:18;1035.4;;;1.5;65.9
74437;BME280;62868;52.360;30.424;2024-02-28T05:24:18;1035.3;;;1.6;65.8
74437;BME280;62868;52.360;30.424;2024-02-28T05:29:18;1035.3;;;1.7;65.7
74437;BME280;62868;52.360;30.424;2024-02-28T05:34:18;1035.4;;;1.8;65.7
74437;BME280;62868;52.360;30.424;2024-02-28T05:39:58;1035.4;;;1.9;65.6
74437;BME280;62868;52.360;30.424;2024-02-28T05:44:48;1035.4;;;2.1;65.5
74437;BME280;62868;52.360;30.424;2024-02-28T05:49:50;1035.3;;;2.2;65.4
74437;BME280;62868;52.360;30.424;2024-02-28T05:54:56;1035.3;;;2.3;65.3
74437;BME280;62868;52.360;30.424;2024-02-28T05:59:34;1035.4;;;2.4;65.2
74437;BME280;62868;52.360;30.424;2024-02-28T06:04:58;1035.3;;;2.5;65.1
74437;BME280;62868;52.360;30.424;2024-02-28T06:09:58;1035.4;;;2.6;65
74437;BME280;62868;52.360;30.424;2024-02-28T06:14:48;1035.4;;;2.8;64.8
74437;BME280;62868;52.360;30.424;2024-02-28T06:19:34;1035.4;;;2.9;64.7
74437;BME280;62868;52.360;30.424;2024-02-28T06:24:20;1035.4;;;3.1;64.6
74437;BME280;62868;52.360;30.424;2024-02-28T06:29:48;1035.5;;;3.4;64.4
74437;BME280;62868;52.360;30.424;2024-02-28T06:34:58;1035.5;;;3.6;64.1
74437;BME280;62868;52.360;30.424;2024-02-28T06:39:26;1035.5;;;3.8;63.9
74437;BME280;62868;52.360;30.424;2024-02-28T06:44:58;1035.5;;;4.1;63.6
74437;BME280;62868;52.360;30.424;2024-02-28T06:49:18;1035.4;;;4.3;63.4
74437;BME280;62868;52.360;30.424;2024-02-28T06:54:18;1035.4;;;4.5;63.1
74437;BME280;62868;52.360;30.424;2024-02-28T06:59:38;1035.4;;;4.6;63
74437;BME280;62868;52.360;30.424;2024-02-28T07:04:26;1035.4;;;4.8;62.8
74437;BME280;62868;52.360;30.424;2024-02-28T07:09:38;1035.4;;;5;62.5
74437;BME280;62868;52.360;30.424;2024-02-28T07:14:26;1035.3;;;4.9;62.6
74437;BME280;62868;52.360;30.424;2024-02-28T07:19:20;1035.3;;;4.9;62.5
74437;BME280;62868;52.360;30.424;2024-02-28T07:24:34;1035.3;;;5;62.3
74437;BME280;62868;52.360;30.424;2024-02-28T07:29:58;1035.3;;;5.1;62.1
74437;BME280;62868;52.360;30.424;2024-02-28T07:34:26;1035.3;;;5.4;61.8
74437;BME280;62868;52.360;30.424;2024-02-28T07:39:44;1035.3;;;5.8;61.5
74437;BME280;62868;52.360;30.424;2024-02-28T07:44:44;1035.3;;;6;61.2
74437;BME280;62868;52.360;30.424;2024-02-28T07:49:40;1035.3;;;6.2;60.9
74437;BME280;62868;52.360;30.424;2024-02-28T07:54:18;1035.3;;;6.3;60.8
74437;BME280;62868;52.360;30.424;2024-02-28T07:59:38;1035.3;;;6.5;60.5
74437;BME280;62868;52.360;30.424;2024-02-28T08:04:48;1035.3;;;6.7;60.3
74437;BME280;62868;52.360;30.424;2024-02-28T08:09:58;1035.3;;;6.9;59.9
74437;BME280;62868;52.360;30.424;2024-02-28T08:14:38;1035.3;;;7;59.7
74437;BME280;62868;52.360;30.424;2024-02-28T08:19:58;1035.3;;;7;59.4
74437;BME280;62868;52.360;30.424;2024-02-28T08:24:58;1035.3;;;7;59.3
74437;BME280;62868;52.360;30.424;2024-02-28T08:29:48;1035.3;;;7.2;59
74437;BME280;62868;52.360;30.424;2024-02-28T08:34:30;1035.3;;;7.5;58.6
74437;BME280;62868;52.360;30.424;2024-02-28T08:39:26;1035.3;;;7.7;58.3
74437;BME280;62868;52.360;30.424;2024-02-28T08:44:26;1035.2;;;7.8;58
74437;BME280;62868;52.360;30.424;2024-02-28T08:49:34;1035.2;;;8;57.8
74437;BME280;62868;52.360;30.424;2024-02-28T08:54:26;1035.2;;;7.9;57.5
74437;BME280;62868;52.360;30.424;2024-02-28T08:59:34;1035.1;;;8.1;57.3
74437;BME280;62868;52.360;30.424;2024-02-28T09:04:44;1035.2;;;8.5;56.8
74437;BME280;62868;52.360;30.424;2024-02-28T09:09:34;1035.2;;;8.7;56.6
74437;BME280;62868;52.360;30.424;2024-02-28T09:14:58;1035.1;;;8.8;56.4
74437;BME280;62868;52.360;30.424;2024-02-28T09:19:28;1035.2;;;9;56.1
74437;BME280;62868;52.360;30.424;2024-02-28T09:24:44;1035.2;;;9.1;55.9
74437;BME280;62868;52.360;30.424;2024-02-28T09:29:50;1035.2;;;9.1;55.6
74437;BME280;62868;52.360;30.424;2024-02-28T09:34:44;1035.2;;;9.3;55.3
74437;BME280;62868;52.360;30.424;2024-02-28T09:39:48;1035.1;;;9.5;55.1
74437;BME280;62868;52.360;30.424;2024-02-28T09:44:26;1035.2;;;9.8;54.8
74437;BME280;62868;52.360;30.424;2024-02-28T09:49:18;1035.1;;;9.9;54.5
74437;BME280;62868;52.360;30.424;2024-02-28T09:54:48;1035.1;;;10.1;54.2
74437;BME280;62868;52.360;30.424;2024-02-28T09:59:58;1035.1;;;10.2;54
74437;BME280;62868;52.360;30.424;2024-02-28T10:04:30;1035;;;10.3;53.8
74437;BME280;62868;52.360;30.424;2024-02-28T10:09:40;1035;;;10.3;53.6
74437;BME280;62868;52.360;30.424;2024-02-28T10:14:34;1034.9;;;10.5;53.2
74437;BME280;62868;52.360;30.424;2024-02-28T10:19:26;1034.9;;;10.6;52.8
74437;BME280;62868;52.360;30.424;2024-02-28T10:24:38;1034.9;;;10.7;52.5
74437;BME280;62868;52.360;30.424;2024-02-28T10:29:26;1035;;;10.9;52.3
74437;BME280;62868;52.360;30.424;2024-02-28T10:34:38;1035;;;10.9;52.1
74437;BME280;62868;52.360;30.424;2024-02-28T10:39:58;1035;;;11;51.9
74437;BME280;62868;52.360;30.424;2024-02-28T10:44:48;1034.9;;;11.1;51.8
74437;BME280;62868;52.360;30.424;2024-02-28T10:49:44;1034.9;;;11.1;51.6
74437;BME280;62868;52.360;30.424;2024-02-28T10:54:58;1034.9;;;11.1;51.4
74437;BME280;62868;52.360;30.424;2024-02-28T10:59:34;1034.8;;;10.9;51.3
74437;BME280;62868;52.360;30.424;2024-02-28T11:04:58;1034.7;;;11.1;51.1
74437;BME280;62868;52.360;30.424;2024-02-28T11:09:58;1034.7;;;11.2;50.8
74437;BME280;62868;52.360;30.424;2024-02-28T11:14:55;1034.7;;;11.1;50.8
74437;BME280;62868;52.360;30.424;2024-02-28T11:19:34;1034.6;;;11.2;50.8
74437;BME280;62868;52.360;30.424;2024-02-28T11:24:36;1034.6;;;11.3;50.6
74437;BME280;62868;52.360;30.424;2024-02-28T11:29:32;1034.6;;;11.3;50.6
74437;BME280;62868;52.360;30.424;2024-02-28T11:35:00;1034.6;;;11.4;50.5
74437;BME280;62868;52.360;30.424;2024-02-28T11:39:40;1034.5;;;11.6;50.2
74437;BME280;62868;52.360;30.424;2024-02-28T11:44:58;1034.5;;;11.5;50.2
74437;BME280;62868;52.360;30.424;2024-02-28T11:49:48;1034.4;;;11.5;50.1
74437;BME280;62868;52.360;30.424;2024-02-28T11:54:56;1034.4;;;11.7;50
74437;BME280;62868;52.360;30.424;2024-02-28T11:59:26;1034.3;;;11.7;49.9
74437;BME280;62868;52.360;30.424;2024-02-28T12:04:26;1034.2;;;11.7;49.7
74437;BME280;62868;52.360;30.424;2024-02-28T12:09:48;1034.2;;;11.5;49.6
74437;BME280;62868;52.360;30.424;2024-02-28T12:14:18;1034.1;;;11.4;49.5
74437;BME280;62868;52.360;30.424;2024-02-28T12:19:48;1034.1;;;11.5;49.5
74437;BME280;62868;52.360;30.424;2024-02-28T12:24:34;1034;;;11.5;49.4
74437;BME280;62868;52.360;30.424;2024-02-28T12:29:32;1034;;;11.6;49.3
74437;BME280;62868;52.360;30.424;2024-02-28T12:34:18;1034;;;11.5;49.2
74437;BME280;62868;52.360;30.424;2024-02-28T12:39:46;1034;;;11.5;49.2
74437;BME280;62868;52.360;30.424;2024-02-28T12:44:58;1033.9;;;11.4;49
74437;BME280;62868;52.360;30.424;2024-02-28T12:49:20;1034;;;11.5;49
74437;BME280;62868;52.360;30.424;2024-02-28T12:54:58;1034;;;11.4;49
74437;BME280;62868;52.360;30.424;2024-02-28T12:59:44;1033.9;;;11.4;48.9
74437;BME280;62868;52.360;30.424;2024-02-28T13:04:48;1033.9;;;11.4;48.9
74437;BME280;62868;52.360;30.424;2024-02-28T13:09:58;1033.8;;;11.3;48.7
74437;BME280;62868;52.360;30.424;2024-02-28T13:14:18;1033.8;;;11.1;48.6
74437;BME280;62868;52.360;30.424;2024-02-28T13:19:58;1033.8;;;11.1;48.5
74437;BME280;62868;52.360;30.424;2024-02-28T13:24:38;1033.7;;;11;48.5
74437;BME280;62868;52.360;30.424;2024-02-28T13:29:26;1033.7;;;11;48.6
74437;BME280;62868;52.360;30.424;2024-02-28T13:34:26;1033.8;;;11;48.6
74437;BME280;62868;52.360;30.424;2024-02-28T13:39:18;1033.8;;;10.9;48.5
74437;BME280;62868;52.360;30.424;2024-02-28T13:44:30;1033.7;;;10.9;48.6
74437;BME280;62868;52.360;30.424;2024-02-28T13:49:26;1033.7;;;10.9;48.7
74437;BME280;62868;52.360;30.424;2024-02-28T13:54:48;1033.7;;;10.8;48.7
74437;BME280;62868;52.360;30.424;2024-02-28T13:59:26;1033.6;;;10.7;48.8
74437;BME280;62868;52.360;30.424;2024-02-28T14:04:58;1033.6;;;10.6;48.8
74437;BME280;62868;52.360;30.424;2024-02-28T14:09:44;1033.5;;;10.5;48.9
74437;BME280;62868;52.360;30.424;2024-02-28T14:14:58;1033.5;;;10.4;49
74437;BME280;62868;52.360;30.424;2024-02-28T14:19:26;1033.5;;;10.2;49
74437;BME280;62868;52.360;30.424;2024-02-28T14:24:36;1033.5;;;10.1;49.1
74437;BME280;62868;52.360;30.424;2024-02-28T14:29:26;1033.4;;;9.9;49.2
74437;BME280;62868;52.360;30.424;2024-02-28T14:34:34;1033.4;;;9.8;49.4
74437;BME280;62868;52.360;30.424;2024-02-28T14:39:56;1033.4;;;9.7;49.5
74437;BME280;62868;52.360;30.424;2024-02-28T14:44:48;1033.3;;;9.5;49.6
74437;BME280;62868;52.360;30.424;2024-02-28T14:49:30;1033.3;;;9.3;49.8
74437;BME280;62868;52.360;30.424;2024-02-28T14:54:50;1033.2;;;9.2;49.9
74437;BME280;62868;52.360;30.424;2024-02-28T14:59:58;1033.2;;;9;50
74437;BME280;62868;52.360;30.424;2024-02-28T15:04:40;1033.2;;;8.9;50.2
74437;BME280;62868;52.360;30.424;2024-02-28T15:09:18;1033.3;;;8.7;50.4
74437;BME280;62868;52.360;30.424;2024-02-28T15:14:26;1033.3;;;8.7;50.5
74437;BME280;62868;52.360;30.424;2024-02-28T15:19:19;1033.4;;;8.5;50.7
74437;BME280;62868;52.360;30.424;2024-02-28T15:24:26;1033.4;;;8.4;50.8
74437;BME280;62868;52.360;30.424;2024-02-28T15:29:18;1033.4;;;8.4;50.8
74437;BME280;62868;52.360;30.424;2024-02-28T15:34:34;1033.4;;;8.3;50.9
74437;BME280;62868;52.360;30.424;2024-02-28T15:39:36;1033.3;;;8.2;51.1
74437;BME280;62868;52.360;30.424;2024-02-28T15:44:26;1033.2;;;8;51.3
74437;BME280;62868;52.360;30.424;2024-02-28T15:49:58;1033.3;;;7.9;51.4
74437;BME280;62868;52.360;30.424;2024-02-28T15:54:48;1033.3;;;7.8;51.6
74437;BME280;62868;52.360;30.424;2024-02-28T15:59:44;1033.4;;;7.7;51.7
74437;BME280;62868;52.360;30.424;2024-02-28T16:04:26;1033.4;;;7.6;51.8
74437;BME280;62868;52.360;30.424;2024-02-28T16:09:34;1033.5;;;7.6;51.9
74437;BME280;62868;52.360;30.424;2024-02-28T16:14:48;1033.5;;;7.5;52
74437;BME280;62868;52.360;30.424;2024-02-28T16:19:34;1033.5;;;7.5;52
74437;BME280;62868;52.360;30.424;2024-02-28T16:24:30;1033.7;;;7.4;52.1
74437;BME280;62868;52.360;30.424;2024-02-28T16:29:32;1033.6;;;7.4;52.2
74437;BME280;62868;52.360;30.424;2024-02-28T16:34:58;1033.6;;;7.3;52.3
74437;BME280;62868;52.360;30.424;2024-02-28T16:39:38;1033.6;;;7.3;52.5
74437;BME280;62868;52.360;30.424;2024-02-28T16:44:41;1033.6;;;7.2;52.7
74437;BME280;62868;52.360;30.424;2024-02-28T16:49:26;1033.6;;;7.2;52.8
74437;BME280;62868;52.360;30.424;2024-02-28T16:54:18;1033.7;;;7.1;52.9
74437;BME280;62868;52.360;30.424;2024-02-28T16:59:34;1033.7;;;7;53
74437;BME280;62868;52.360;30.424;2024-02-28T17:04:34;1033.7;;;7;53.2
74437;BME280;62868;52.360;30.424;2024-02-28T17:14:45;1033.7;;;6.8;53.5
74437;BME280;62868;52.360;30.424;2024-02-28T17:19:34;1033.7;;;6.8;53.7
74437;BME280;62868;52.360;30.424;2024-02-28T17:24:50;1033.7;;;6.7;53.8
74437;BME280;62868;52.360;30.424;2024-02-28T17:29:48;1033.7;;;6.7;53.9
74437;BME280;62868;52.360;30.424;2024-02-28T17:34:44;1033.7;;;6.7;54
74437;BME280;62868;52.360;30.424;2024-02-28T17:39:26;1033.7;;;6.7;54.3
74437;BME280;62868;52.360;30.424;2024-02-28T17:44:36;1033.6;;;6.7;54.3
74437;BME280;62868;52.360;30.424;2024-02-28T17:49:46;1033.7;;;6.6;54.4
74437;BME280;62868;52.360;30.424;2024-02-28T17:54:32;1033.7;;;6.6;54.6
74437;BME280;62868;52.360;30.424;2024-02-28T17:59:38;1033.6;;;6.5;54.7
74437;BME280;62868;52.360;30.424;2024-02-28T18:04:48;1033.7;;;6.4;54.9
74437;BME280;62868;52.360;30.424;2024-02-28T18:09:56;1033.7;;;6.4;55
74437;BME280;62868;52.360;30.424;2024-02-28T18:14:38;1033.7;;;6.4;55.2
74437;BME280;62868;52.360;30.424;2024-02-28T18:19:28;1033.7;;;6.4;55.2
74437;BME280;62868;52.360;30.424;2024-02-28T18:24:18;1033.7;;;6.3;55.4
74437;BME280;62868;52.360;30.424;2024-02-28T18:29:40;1033.7;;;6.3;55.4
74437;BME280;62868;52.360;30.424;2024-02-28T18:34:26;1033.7;;;6.3;55.6
74437;BME280;62868;52.360;30.424;2024-02-28T18:39:37;1033.7;;;6.3;55.7
74437;BME280;62868;52.360;30.424;2024-02-28T18:44:38;1033.7;;;6.2;55.8
74437;BME280;62868;52.360;30.424;2024-02-28T18:49:56;1033.7;;;6.2;56
74437;BME280;62868;52.360;30.424;2024-02-28T18:54:48;1033.7;;;6.2;56.1
74437;BME280;62868;52.360;30.424;2024-02-28T18:59:56;1033.6;;;6.1;56.2
74437;BME280;62868;52.360;30.424;2024-02-28T19:04:56;1033.7;;;6.1;56.3
74437;BME280;62868;52.360;30.424;2024-02-28T19:09:40;1033.7;;;6;56.4
74437;BME280;62868;52.360;30.424;2024-02-28T19:14:56;1033.7;;;6;56.5
74437;BME280;62868;52.360;30.424;2024-02-28T19:19:56;1033.7;;;6;56.7
74437;BME280;62868;52.360;30.424;2024-02-28T19:24:46;1033.7;;;5.9;56.8
74437;BME280;62868;52.360;30.424;2024-02-28T19:29:18;1033.6;;;5.9;56.9
74437;BME280;62868;52.360;30.424;2024-02-28T19:34:20;1033.6;;;5.9;57
74437;BME280;62868;52.360;30.424;2024-02-28T19:39:48;1033.6;;;5.9;57.1
74437;BME280;62868;52.360;30.424;2024-02-28T19:44:56;1033.5;;;5.8;57.2
74437;BME280;62868;52.360;30.424;2024-02-28T19:49:38;1033.5;;;5.8;57.4
74437;BME280;62868;52.360;30.424;2024-02-28T19:54:56;1033.4;;;5.7;57.5
74437;BME280;62868;52.360;30.424;2024-02-28T19:59:18;1033.4;;;5.6;57.8
74437;BME280;62868;52.360;30.424;2024-02-28T20:04:18;1033.4;;;5.6;57.9
74437;BME280;62868;52.360;30.424;2024-02-28T20:09:30;1033.4;;;5.5;58.1
74437;BME280;62868;52.360;30.424;2024-02-28T20:14:18;1033.4;;;5.5;58.1
74437;BME280;62868;52.360;30.424;2024-02-28T20:19:26;1033.4;;;5.5;58.2
74437;BME280;62868;52.360;30.424;2024-02-28T20:24:26;1033.4;;;5.5;58.3
74437;BME280;62868;52.360;30.424;2024-02-28T20:29:48;1033.4;;;5.5;58.4
74437;BME280;62868;52.360;30.424;2024-02-28T20:34:34;1033.4;;;5.4;58.5
74437;BME280;62868;52.360;30.424;2024-02-28T20:39:56;1033.4;;;5.4;58.6
74437;BME280;62868;52.360;30.424;2024-02-28T20:44:34;1033.5;;;5.4;58.7
74437;BME280;62868;52.360;30.424;2024-02-28T20:49:56;1033.4;;;5.4;58.7
74437;BME280;62868;52.360;30.424;2024-02-28T20:54:32;1033.4;;;5.4;58.8
74437;BME280;62868;52.360;30.424;2024-02-28T20:59:46;1033.5;;;5.5;58.8
74437;BME280;62868;52.360;30.424;2024-02-28T21:04:32;1033.4;;;5.5;58.8
74437;BME280;62868;52.360;30.424;2024-02-28T21:09:42;1033.4;;;5.5;58.9
74437;BME280;62868;52.360;30.424;2024-02-28T21:14:56;1033.4;;;5.5;59
74437;BME280;62868;52.360;30.424;2024-02-28T21:19:46;1033.5;;;5.5;59
74437;BME280;62868;52.360;30.424;2024-02-28T21:24:30;1033.4;;;5.5;59
74437;BME280;62868;52.360;30.424;2024-02-28T21:29:56;1033.4;;;5.5;59.2
74437;BME280;62868;52.360;30.424;2024-02-28T21:34:38;1033.3;;;5.5;59.3
74437;BME280;62868;52.360;30.424;2024-02-28T21:39:24;1033.3;;;5.4;59.3
74437;BME280;62868;52.360;30.424;2024-02-28T21:44:18;1033.3;;;5.5;59.2
74437;BME280;62868;52.360;30.424;2024-02-28T21:49:40;1033.3;;;5.5;59.3
74437;BME280;62868;52.360;30.424;2024-02-28T21:54:18;1033.3;;;5.5;59.3
74437;BME280;62868;52.360;30.424;2024-02-28T21:59:18;1033.2;;;5.5;59.3
74437;BME280;62868;52.360;30.424;2024-02-28T22:04:48;1033.3;;;5.5;59.4
74437;BME280;62868;52.360;30.424;2024-02-28T22:09:26;1033.3;;;5.4;59.5
74437;BME280;62868;52.360;30.424;2024-02-28T22:14:48;1033.2;;;5.4;59.5
74437;BME280;62868;52.360;30.424;2024-02-28T22:19:18;1033.2;;;5.4;59.6
74437;BME280;62868;52.360;30.424;2024-02-28T22:24:56;1033.2;;;5.4;59.6
74437;BME280;62868;52.360;30.424;2024-02-28T22:29:32;1033.2;;;5.4;59.6
74437;BME280;62868;52.360;30.424;2024-02-28T22:34:46;1033.3;;;5.3;59.6
74437;BME280;62868;52.360;30.424;2024-02-28T22:39:56;1033.2;;;5.3;59.7
74437;BME280;62868;52.360;30.424;2024-02-28T22:44:43;1033.1;;;5.3;59.7
74437;BME280;62868;52.360;30.424;2024-02-28T22:49:56;1033.1;;;5.3;59.7
74437;BME280;62868;52.360;30.424;2024-02-28T22:54:41;1033.1;;;5.3;59.8
74437;BME280;62868;52.360;30.424;2024-02-28T22:59:38;1033.2;;;5.3;59.8
74437;BME280;62868;52.360;30.424;2024-02-28T23:04:56;1033.2;;;5.3;59.8
74437;BME280;62868;52.360;30.424;2024-02-28T23:09:56;1033.2;;;5.3;59.8
74437;BME280;62868;52.360;30.424;2024-02-28T23:14:48;1033.1;;;5.3;59.8
74437;BME280;62868;52.360;30.424;2024-02-28T23:19:38;1033.1;;;5.3;59.8
74437;BME280;62868;52.360;30.424;2024-02-28T23:24:34;1033.1;;;5.2;59.9
74437;BME280;62868;52.360;30.424;2024-02-28T23:29:26;1033.1;;;5.2;60
74437;BME280;62868;52.360;30.424;2024-02-28T23:34:40;1033.1;;;5.2;60
74437;BME280;62868;52.360;30.424;2024-02-28T23:39:26;1033.1;;;5.2;60
74437;BME280;62868;52.360;30.424;2024-02-28T23:44:34;1033.2;;;5.2;60
74437;BME280;62868;52.360;30.424;2024-02-28T23:49:42;1033.2;;;5.2;60
74437;BME280;62868;52.360;30.424;2024-02-28T23:54:34;1033.2;;;5.2;60
74437;BME280;62868;52.360;30.424;2024-02-28T23:59:48;1033.1;;;5.2;60
